createdAt,value
2022-12-24T00:02:20.439Z,59.34
2022-12-24T00:04:47.034Z,59.13
2022-12-24T00:07:13.709Z,59.14
2022-12-24T00:09:40.287Z,58.82
2022-12-24T00:12:07.072Z,59.13
2022-12-24T00:14:33.695Z,59.31
2022-12-24T00:17:00.505Z,59.36
2022-12-24T00:19:27.166Z,59.55
2022-12-24T00:21:53.827Z,59.67
2022-12-24T00:24:20.342Z,59.28
2022-12-24T00:26:46.923Z,59.01
2022-12-24T00:29:13.504Z,58.38
2022-12-24T00:31:40.176Z,58.55
2022-12-24T00:34:08.702Z,58.13
2022-12-24T00:36:35.367Z,58.30
2022-12-24T00:39:02.007Z,58.12
2022-12-24T00:41:29.396Z,58.28
2022-12-24T00:43:58.281Z,58.11
2022-12-24T00:46:26.041Z,58.18
2022-12-24T00:48:52.839Z,57.86
2022-12-24T00:51:20.323Z,57.84
2022-12-24T00:53:47.006Z,57.80
2022-12-24T00:56:13.641Z,57.72
2022-12-24T00:58:40.330Z,58.08
2022-12-24T01:01:07.208Z,58.00
2022-12-24T01:03:37.105Z,58.27
2022-12-24T01:06:22.929Z,58.06
2022-12-24T01:08:52.713Z,58.06
2022-12-24T01:11:19.329Z,57.95
2022-12-24T01:13:45.871Z,58.01
2022-12-24T01:16:17.119Z,57.88
2022-12-24T01:18:43.804Z,57.93
2022-12-24T01:21:10.420Z,57.91
2022-12-24T01:23:37.114Z,57.87
2022-12-24T01:26:04.340Z,58.01
2022-12-24T01:28:31.801Z,58.04
2022-12-24T01:30:58.344Z,58.13
2022-12-24T01:33:27.763Z,57.87
2022-12-24T01:35:54.313Z,57.79
2022-12-24T01:38:20.910Z,57.79
2022-12-24T01:41:05.833Z,57.61
2022-12-24T01:43:32.663Z,57.23
2022-12-24T01:46:01.894Z,57.42
2022-12-24T01:48:34.202Z,57.42
2022-12-24T01:51:02.726Z,57.48
2022-12-24T01:53:29.768Z,57.43
2022-12-24T01:55:56.574Z,57.57
2022-12-24T01:58:24.359Z,57.46
2022-12-24T02:00:50.868Z,57.53
2022-12-24T02:03:18.038Z,57.36
2022-12-24T02:05:47.732Z,57.35
2022-12-24T02:08:15.287Z,57.36
2022-12-24T02:10:41.934Z,57.33
2022-12-24T02:13:08.687Z,57.38
2022-12-24T02:15:42.641Z,57.30
2022-12-24T02:18:20.877Z,57.18
2022-12-24T02:21:16.830Z,57.13
2022-12-24T02:23:53.554Z,57.04
2022-12-24T02:26:32.100Z,56.90
2022-12-24T02:29:04.637Z,56.94
2022-12-24T02:31:40.538Z,56.80
2022-12-24T02:34:33.922Z,64.47
2022-12-24T02:37:19.286Z,57.04
2022-12-24T02:39:58.514Z,57.31
2022-12-24T02:42:28.319Z,57.21
2022-12-24T02:45:02.091Z,57.07
2022-12-24T02:47:30.995Z,57.56
2022-12-24T02:50:01.350Z,57.04
2022-12-24T02:52:32.832Z,57.42
2022-12-24T02:55:01.665Z,57.40
2022-12-24T02:57:37.158Z,57.18
2022-12-24T03:00:13.310Z,57.08
2022-12-24T03:02:48.017Z,56.94
2022-12-24T03:05:21.483Z,57.06
2022-12-24T03:08:20.418Z,57.09
2022-12-24T03:10:57.850Z,57.20
2022-12-24T03:13:25.081Z,57.31
2022-12-24T03:15:51.992Z,57.36
2022-12-24T03:18:20.983Z,57.12
2022-12-24T03:21:13.820Z,57.48
2022-12-24T03:23:40.789Z,57.40
2022-12-24T03:26:09.174Z,57.23
2022-12-24T03:28:37.396Z,57.19
2022-12-24T03:31:04.874Z,57.33
2022-12-24T03:33:31.895Z,57.38
2022-12-24T03:35:58.485Z,57.41
2022-12-24T03:38:25.083Z,57.42
2022-12-24T03:40:51.958Z,57.19
2022-12-24T03:43:18.657Z,57.22
2022-12-24T03:45:45.362Z,57.42
2022-12-24T03:48:11.964Z,57.62
2022-12-24T03:50:38.515Z,57.42
2022-12-24T03:53:05.112Z,57.63
2022-12-24T03:55:31.688Z,57.71
2022-12-24T03:57:58.311Z,57.77
2022-12-24T04:00:24.927Z,58.05
2022-12-24T04:02:51.697Z,57.94
2022-12-24T04:05:19.330Z,58.07
2022-12-24T04:07:46.670Z,58.09
2022-12-24T04:10:13.547Z,58.33
2022-12-24T04:12:40.226Z,58.34
2022-12-24T04:15:07.334Z,58.60
2022-12-24T04:17:34.002Z,58.87
2022-12-24T04:20:00.588Z,58.87
2022-12-24T04:22:27.193Z,59.11
2022-12-24T04:24:53.762Z,59.24
2022-12-24T04:27:22.928Z,59.37
2022-12-24T04:29:51.865Z,59.41
2022-12-24T04:32:18.487Z,59.45
2022-12-24T04:34:45.139Z,59.39
2022-12-24T04:37:11.681Z,59.45
2022-12-24T04:39:38.242Z,59.35
2022-12-24T04:42:04.895Z,59.47
2022-12-24T04:44:31.521Z,59.62
2022-12-24T04:46:58.053Z,59.84
2022-12-24T04:49:24.735Z,59.46
2022-12-24T04:51:51.245Z,59.61
2022-12-24T04:54:17.859Z,59.36
2022-12-24T04:56:44.488Z,59.25
2022-12-24T04:59:11.128Z,59.54
2022-12-24T05:01:37.813Z,59.66
2022-12-24T05:04:04.590Z,59.70
2022-12-24T05:06:31.997Z,59.57
2022-12-24T05:08:59.308Z,59.69
2022-12-24T05:11:25.901Z,59.93
2022-12-24T05:13:52.570Z,59.91
2022-12-24T05:16:19.917Z,60.05
2022-12-24T05:18:46.816Z,60.02
2022-12-24T05:21:14.684Z,60.09
2022-12-24T05:23:59.673Z,60.04
2022-12-24T05:26:29.408Z,59.98
2022-12-24T05:28:56.916Z,60.17
2022-12-24T05:31:25.094Z,59.98
2022-12-24T05:33:51.810Z,60.08
2022-12-24T05:36:18.350Z,60.54
2022-12-24T05:38:44.999Z,60.22
2022-12-24T05:41:11.630Z,60.60
2022-12-24T05:43:38.574Z,60.51
2022-12-24T05:46:07.116Z,60.66
2022-12-24T05:48:34.153Z,60.48
2022-12-24T05:51:03.940Z,60.66
2022-12-24T05:53:30.528Z,60.64
2022-12-24T05:56:02.563Z,60.85
2022-12-24T05:58:29.133Z,60.92
2022-12-24T06:00:55.692Z,60.68
2022-12-24T06:03:22.317Z,60.99
2022-12-24T06:05:48.901Z,61.07
2022-12-24T06:08:15.545Z,61.05
2022-12-24T06:10:42.076Z,61.06
2022-12-24T06:13:08.704Z,61.27
2022-12-24T06:15:36.082Z,61.38
2022-12-24T06:18:03.240Z,61.71
2022-12-24T06:20:30.074Z,61.71
2022-12-24T06:22:56.741Z,61.74
2022-12-24T06:25:23.260Z,62.24
2022-12-24T06:27:49.934Z,62.79
2022-12-24T06:30:18.542Z,62.84
2022-12-24T06:32:45.378Z,62.64
2022-12-24T06:35:12.334Z,62.79
2022-12-24T06:37:38.976Z,62.56
2022-12-24T06:40:05.704Z,62.57
2022-12-24T06:42:32.315Z,62.82
2022-12-24T06:45:02.284Z,62.58
2022-12-24T06:47:34.415Z,62.90
2022-12-24T06:50:00.955Z,62.88
2022-12-24T06:52:27.592Z,62.95
2022-12-24T06:54:54.168Z,62.99
2022-12-24T06:57:20.916Z,63.52
2022-12-24T06:59:47.493Z,63.60
2022-12-24T07:02:14.273Z,63.32
2022-12-24T07:04:40.826Z,63.46
2022-12-24T07:07:07.447Z,63.52
2022-12-24T07:09:33.991Z,63.51
2022-12-24T07:12:00.614Z,63.31
2022-12-24T07:14:27.227Z,63.50
2022-12-24T07:16:58.866Z,64.99
2022-12-24T07:19:26.025Z,63.66
2022-12-24T07:21:52.689Z,63.45
2022-12-24T07:24:20.242Z,64.00
2022-12-24T07:26:46.909Z,63.25
2022-12-24T07:29:13.513Z,62.60
2022-12-24T07:31:40.247Z,63.05
2022-12-24T07:34:06.896Z,62.77
2022-12-24T07:36:33.418Z,62.89
2022-12-24T07:39:00.104Z,66.23
2022-12-24T07:41:26.668Z,66.38
2022-12-24T07:43:53.469Z,65.35
2022-12-24T07:46:20.139Z,67.20
2022-12-24T07:48:46.763Z,65.92
2022-12-24T07:51:13.430Z,63.80
2022-12-24T07:53:40.161Z,62.67
2022-12-24T07:56:12.380Z,61.30
2022-12-24T07:58:39.546Z,62.19
2022-12-24T08:01:06.263Z,61.26
2022-12-24T08:03:33.080Z,61.79
2022-12-24T08:05:59.799Z,61.64
2022-12-24T08:08:26.407Z,62.43
2022-12-24T08:10:53.222Z,61.33
2022-12-24T08:13:19.924Z,60.23
2022-12-24T08:15:46.539Z,61.83
2022-12-24T08:18:13.131Z,60.25
2022-12-24T08:20:40.496Z,59.66
2022-12-24T08:23:07.737Z,61.39
2022-12-24T08:25:34.784Z,59.41
2022-12-24T08:28:01.550Z,59.89
2022-12-24T08:30:28.169Z,59.95
2022-12-24T08:32:54.899Z,60.20
2022-12-24T08:35:21.560Z,59.04
2022-12-24T08:37:48.149Z,59.84
2022-12-24T08:40:14.760Z,58.14
2022-12-24T08:42:41.495Z,58.21
2022-12-24T08:45:08.343Z,57.97
2022-12-24T08:47:34.936Z,58.04
2022-12-24T08:50:01.517Z,59.35
2022-12-24T08:52:28.121Z,57.74
2022-12-24T08:54:55.495Z,58.39
2022-12-24T08:57:22.127Z,57.62
2022-12-24T08:59:48.674Z,57.03
2022-12-24T09:02:16.640Z,56.91
2022-12-24T09:04:43.467Z,56.79
2022-12-24T09:07:10.801Z,57.24
2022-12-24T09:09:38.184Z,56.90
2022-12-24T09:12:07.963Z,57.13
2022-12-24T09:14:34.660Z,56.89
2022-12-24T09:17:01.263Z,57.12
2022-12-24T09:19:28.119Z,56.78
2022-12-24T09:21:54.709Z,57.42
2022-12-24T09:24:21.344Z,56.05
2022-12-24T09:26:55.510Z,55.37
2022-12-24T09:29:24.129Z,55.27
2022-12-24T09:31:50.942Z,54.62
2022-12-24T09:34:17.657Z,54.96
2022-12-24T09:36:44.239Z,54.40
2022-12-24T09:39:10.941Z,57.20
2022-12-24T09:41:55.967Z,54.10
2022-12-24T09:44:22.599Z,54.50
2022-12-24T09:46:50.249Z,55.22
2022-12-24T09:49:20.213Z,54.58
2022-12-24T09:51:51.577Z,54.10
2022-12-24T09:54:22.785Z,54.21
2022-12-24T09:56:49.843Z,54.18
2022-12-24T09:59:26.909Z,53.90
2022-12-24T10:01:54.658Z,53.84
2022-12-24T10:04:23.968Z,52.45
2022-12-24T10:06:53.628Z,51.83
2022-12-24T10:09:32.172Z,52.09
2022-12-24T10:12:14.033Z,55.09
2022-12-24T10:14:57.042Z,51.52
2022-12-24T10:17:58.892Z,51.79
2022-12-24T10:20:31.254Z,50.43
2022-12-24T10:23:03.881Z,50.57
2022-12-24T10:25:34.450Z,50.69
2022-12-24T10:28:02.384Z,50.69
2022-12-24T10:30:29.035Z,50.59
2022-12-24T10:32:55.995Z,50.63
2022-12-24T10:35:25.720Z,50.14
2022-12-24T10:37:53.471Z,49.77
2022-12-24T10:40:20.089Z,50.42
2022-12-24T10:42:51.266Z,50.11
2022-12-24T10:45:20.732Z,50.11
2022-12-24T10:47:49.740Z,49.85
2022-12-24T10:50:28.593Z,49.51
2022-12-24T10:52:59.895Z,49.40
2022-12-24T10:55:28.255Z,48.99
2022-12-24T10:58:01.268Z,48.36
2022-12-24T11:00:35.319Z,48.96
2022-12-24T11:03:11.733Z,48.08
2022-12-24T11:05:38.709Z,49.05
2022-12-24T11:08:20.302Z,47.61
2022-12-24T11:10:57.339Z,48.02
2022-12-24T11:13:37.515Z,48.77
2022-12-24T11:16:07.935Z,47.61
2022-12-24T11:18:36.531Z,47.01
2022-12-24T11:21:03.610Z,47.16
2022-12-24T11:23:30.867Z,47.12
2022-12-24T11:25:58.406Z,47.82
2022-12-24T11:28:24.987Z,47.70
2022-12-24T11:31:18.406Z,47.18
2022-12-24T11:33:49.305Z,47.93
2022-12-24T11:36:17.225Z,47.14
2022-12-24T11:38:52.419Z,47.10
2022-12-24T11:41:19.019Z,46.62
2022-12-24T11:43:47.880Z,46.86
2022-12-24T11:46:19.359Z,47.10
2022-12-24T11:48:46.582Z,46.41
2022-12-24T11:51:26.508Z,45.94
2022-12-24T11:53:59.861Z,45.30
2022-12-24T11:56:29.603Z,45.20
2022-12-24T11:58:59.109Z,45.13
2022-12-24T12:01:44.085Z,46.03
2022-12-24T12:04:13.079Z,45.65
2022-12-24T12:06:45.566Z,45.60
2022-12-24T12:09:14.292Z,45.61
2022-12-24T12:11:42.414Z,44.40
2022-12-24T12:14:14.818Z,45.12
2022-12-24T12:17:07.717Z,44.64
2022-12-24T12:19:46.526Z,44.60
2022-12-24T12:22:28.377Z,44.68
2022-12-24T12:24:56.900Z,45.20
2022-12-24T12:27:38.026Z,43.94
2022-12-24T12:30:06.395Z,43.80
2022-12-24T12:32:55.328Z,44.03
2022-12-24T12:35:22.224Z,44.79
2022-12-24T12:37:54.144Z,43.45
2022-12-24T12:40:21.019Z,44.36
2022-12-24T12:42:58.590Z,43.35
2022-12-24T12:45:35.228Z,43.25
2022-12-24T12:48:01.838Z,44.14
2022-12-24T12:50:33.412Z,42.90
2022-12-24T12:53:12.178Z,47.40
2022-12-24T12:55:38.768Z,48.42
2022-12-24T12:58:10.912Z,48.92
2022-12-24T13:00:39.620Z,49.33
2022-12-24T13:03:24.407Z,49.20
2022-12-24T13:06:09.862Z,49.46
2022-12-24T13:08:55.058Z,50.13
2022-12-24T13:11:33.830Z,51.12
2022-12-24T13:14:00.406Z,51.60
2022-12-24T13:16:33.973Z,50.96
2022-12-24T13:19:19.267Z,50.68
2022-12-24T13:21:48.946Z,50.33
2022-12-24T13:24:20.795Z,50.15
2022-12-24T13:27:02.633Z,49.93
2022-12-24T13:29:31.374Z,50.24
2022-12-24T13:32:16.529Z,50.35
2022-12-24T13:34:47.406Z,50.44
2022-12-24T13:37:21.908Z,50.51
2022-12-24T13:40:02.489Z,50.87
2022-12-24T13:42:47.653Z,51.18
2022-12-24T13:45:29.774Z,51.29
2022-12-24T13:48:08.554Z,51.15
2022-12-24T13:50:41.055Z,51.30
2022-12-24T13:53:20.922Z,51.70
2022-12-24T13:55:55.338Z,51.84
2022-12-24T13:58:23.896Z,51.85
2022-12-24T14:00:56.311Z,52.00
2022-12-24T14:03:36.104Z,52.02
2022-12-24T14:06:05.861Z,51.93
2022-12-24T14:08:38.060Z,51.83
2022-12-24T14:11:06.679Z,51.72
2022-12-24T14:13:39.314Z,51.83
2022-12-24T14:16:06.238Z,51.76
2022-12-24T14:18:35.657Z,51.48
2022-12-24T14:21:03.033Z,51.14
2022-12-24T14:23:35.849Z,51.29
2022-12-24T14:26:03.728Z,50.85
2022-12-24T14:28:34.169Z,50.94
2022-12-24T14:31:01.676Z,50.66
2022-12-24T14:33:29.159Z,50.49
2022-12-24T14:35:55.819Z,50.48
2022-12-24T14:38:22.995Z,50.40
2022-12-24T14:41:08.441Z,50.28
2022-12-24T14:43:55.348Z,50.66
2022-12-24T14:46:31.143Z,50.51
2022-12-24T14:49:00.780Z,50.87
2022-12-24T14:51:43.883Z,50.95
2022-12-24T14:54:28.933Z,50.85
2022-12-24T14:57:10.873Z,50.99
2022-12-24T14:59:46.418Z,50.98
2022-12-24T15:02:31.620Z,51.07
2022-12-24T15:05:04.311Z,51.09
2022-12-24T15:07:31.959Z,51.22
2022-12-24T15:09:58.559Z,51.20
2022-12-24T15:12:25.510Z,51.29
2022-12-24T15:14:52.134Z,51.31
2022-12-24T15:17:18.851Z,51.40
2022-12-24T15:19:47.600Z,51.48
2022-12-24T15:22:22.519Z,51.70
2022-12-24T15:24:49.232Z,51.96
2022-12-24T15:27:22.789Z,52.16
2022-12-24T15:29:51.031Z,52.56
2022-12-24T15:32:18.783Z,52.67
2022-12-24T15:34:46.774Z,52.77
2022-12-24T15:37:23.745Z,52.92
2022-12-24T15:39:55.135Z,53.18
2022-12-24T15:42:22.934Z,52.97
2022-12-24T15:44:58.358Z,53.21
2022-12-24T15:47:27.965Z,53.34
2022-12-24T15:49:54.798Z,53.39
2022-12-24T15:52:24.713Z,53.37
2022-12-24T15:54:57.459Z,53.65
2022-12-24T15:57:26.871Z,53.74
2022-12-24T15:59:54.692Z,53.91
2022-12-24T16:02:27.599Z,54.02
2022-12-24T16:04:55.217Z,53.84
2022-12-24T16:07:47.546Z,53.98
2022-12-24T16:10:26.561Z,54.25
2022-12-24T16:12:53.205Z,54.52
2022-12-24T16:15:19.900Z,54.50
2022-12-24T16:17:49.187Z,54.74
2022-12-24T16:20:21.512Z,54.64
2022-12-24T16:22:49.013Z,54.86
2022-12-24T16:25:15.590Z,54.97
2022-12-24T16:27:42.182Z,55.11
2022-12-24T16:30:09.771Z,55.15
2022-12-24T16:32:38.075Z,55.34
2022-12-24T16:35:06.564Z,55.38
2022-12-24T16:37:33.177Z,55.46
2022-12-24T16:40:00.387Z,55.68
2022-12-24T16:42:45.761Z,55.56
2022-12-24T16:45:17.439Z,55.56
2022-12-24T16:47:50.962Z,55.45
2022-12-24T16:50:18.409Z,55.47
2022-12-24T16:52:44.992Z,55.46
2022-12-24T16:55:15.154Z,55.56
2022-12-24T16:57:42.279Z,55.67
2022-12-24T17:00:20.029Z,55.64
2022-12-24T17:02:47.992Z,55.66
2022-12-24T17:05:14.803Z,55.86
2022-12-24T17:07:44.017Z,56.01
2022-12-24T17:10:12.074Z,56.00
2022-12-24T17:12:38.671Z,56.11
2022-12-24T17:15:05.606Z,56.15
2022-12-24T17:17:32.210Z,56.38
2022-12-24T17:19:58.868Z,56.43
2022-12-24T17:22:27.368Z,56.55
2022-12-24T17:24:54.652Z,56.53
2022-12-24T17:27:21.404Z,56.43
2022-12-24T17:29:48.018Z,56.39
2022-12-24T17:32:14.603Z,56.44
2022-12-24T17:34:41.152Z,56.46
2022-12-24T17:37:07.868Z,56.50
2022-12-24T17:39:34.520Z,56.62
2022-12-24T17:42:01.270Z,56.54
2022-12-24T17:44:27.845Z,56.98
2022-12-24T17:46:54.715Z,56.89
2022-12-24T17:49:21.363Z,56.88
2022-12-24T17:51:48.441Z,56.99
2022-12-24T17:54:15.033Z,57.07
2022-12-24T17:56:41.656Z,57.29
2022-12-24T17:59:08.244Z,57.30
2022-12-24T18:01:34.931Z,57.40
2022-12-24T18:04:02.306Z,57.54
2022-12-24T18:06:29.177Z,57.60
2022-12-24T18:08:56.096Z,57.55
2022-12-24T18:11:24.965Z,57.75
2022-12-24T18:13:51.865Z,57.60
2022-12-24T18:16:24.681Z,57.74
2022-12-24T18:18:51.896Z,57.31
2022-12-24T18:21:19.689Z,57.49
2022-12-24T18:23:47.277Z,57.69
2022-12-24T18:26:15.468Z,56.78
2022-12-24T18:28:42.213Z,56.94
2022-12-24T18:31:10.984Z,56.40
2022-12-24T18:33:38.205Z,56.49
2022-12-24T18:36:04.981Z,55.53
2022-12-24T18:38:32.206Z,53.95
2022-12-24T18:41:03.152Z,52.47
2022-12-24T18:43:29.754Z,52.37
2022-12-24T18:45:56.357Z,52.18
2022-12-24T18:48:22.948Z,52.36
2022-12-24T18:50:56.945Z,52.89
2022-12-24T18:53:23.665Z,51.95
2022-12-24T18:55:50.258Z,51.70
2022-12-24T18:58:16.881Z,50.60
2022-12-24T19:00:43.783Z,50.24
2022-12-24T19:03:10.568Z,50.13
2022-12-24T19:05:37.150Z,50.24
2022-12-24T19:08:22.162Z,50.48
2022-12-24T19:10:53.105Z,50.25
2022-12-24T19:13:19.685Z,51.21
2022-12-24T19:15:46.260Z,51.28
2022-12-24T19:18:12.887Z,51.14
2022-12-24T19:20:40.071Z,50.98
2022-12-24T19:23:07.255Z,51.11
2022-12-24T19:25:34.534Z,51.11
2022-12-24T19:28:01.840Z,52.38
2022-12-24T19:30:28.412Z,52.23
2022-12-24T19:32:55.027Z,51.88
2022-12-24T19:35:21.624Z,51.73
2022-12-24T19:37:48.188Z,51.66
2022-12-24T19:40:14.748Z,51.40
2022-12-24T19:42:41.406Z,51.55
2022-12-24T19:45:08.354Z,51.25
2022-12-24T19:47:34.936Z,51.39
2022-12-24T19:50:01.532Z,51.50
2022-12-24T19:52:28.155Z,51.33
2022-12-24T19:54:54.671Z,50.98
2022-12-24T19:57:21.332Z,51.20
2022-12-24T19:59:47.870Z,51.11
2022-12-24T20:02:14.606Z,51.15
2022-12-24T20:04:41.359Z,51.00
2022-12-24T20:07:07.922Z,51.06
2022-12-24T20:09:34.472Z,51.39
2022-12-24T20:12:01.153Z,51.01
2022-12-24T20:14:28.687Z,50.90
2022-12-24T20:16:55.496Z,50.71
2022-12-24T20:19:22.439Z,50.69
2022-12-24T20:21:49.112Z,50.88
2022-12-24T20:24:15.789Z,50.95
2022-12-24T20:26:42.445Z,51.17
2022-12-24T20:29:09.814Z,51.08
2022-12-24T20:31:37.205Z,51.60
2022-12-24T20:34:05.395Z,51.62
2022-12-24T20:36:32.127Z,51.65
2022-12-24T20:38:59.167Z,51.25
2022-12-24T20:41:26.517Z,51.23
2022-12-24T20:43:53.069Z,51.29
2022-12-24T20:46:20.720Z,51.40
2022-12-24T20:48:47.397Z,51.47
2022-12-24T20:51:23.385Z,51.60
2022-12-24T20:53:52.471Z,51.94
2022-12-24T20:56:19.121Z,52.04
2022-12-24T20:58:45.995Z,51.97
2022-12-24T21:01:15.671Z,51.89
2022-12-24T21:03:42.803Z,51.68
2022-12-24T21:06:09.417Z,51.61
2022-12-24T21:08:36.182Z,52.10
2022-12-24T21:11:21.428Z,52.01
2022-12-24T21:13:48.286Z,52.23
2022-12-24T21:16:14.875Z,52.41
2022-12-24T21:18:41.807Z,52.35
2022-12-24T21:21:08.360Z,51.09
2022-12-24T21:23:36.341Z,51.66
2022-12-24T21:26:04.418Z,51.74
2022-12-24T21:28:31.417Z,51.55
2022-12-24T21:30:58.056Z,51.70
2022-12-24T21:33:24.732Z,52.38
2022-12-24T21:35:56.878Z,52.35
2022-12-24T21:38:23.429Z,51.68
2022-12-24T21:41:06.488Z,52.58
2022-12-24T21:43:34.318Z,51.39
2022-12-24T21:46:01.339Z,50.80
2022-12-24T21:48:46.781Z,51.35
2022-12-24T21:51:16.085Z,50.05
2022-12-24T21:54:01.333Z,50.28
2022-12-24T21:56:27.910Z,50.65
2022-12-24T21:58:54.453Z,50.49
2022-12-24T22:01:21.131Z,50.78
2022-12-24T22:03:49.424Z,50.82
2022-12-24T22:06:35.390Z,51.39
2022-12-24T22:09:28.676Z,51.46
2022-12-24T22:11:55.234Z,51.24
2022-12-24T22:14:21.829Z,51.42
2022-12-24T22:16:48.602Z,51.49
2022-12-24T22:19:15.400Z,50.74
2022-12-24T22:21:41.986Z,50.99
2022-12-24T22:24:09.111Z,51.56
2022-12-24T22:26:35.722Z,52.32
2022-12-24T22:29:04.349Z,52.99
2022-12-24T22:31:32.578Z,53.29
2022-12-24T22:33:59.648Z,52.74
2022-12-24T22:36:26.554Z,53.67
2022-12-24T22:38:53.087Z,52.90
2022-12-24T22:41:20.335Z,52.38
2022-12-24T22:43:49.012Z,52.89
2022-12-24T22:46:15.787Z,53.99
2022-12-24T22:48:43.643Z,53.10
2022-12-24T22:51:11.767Z,52.67
2022-12-24T22:53:38.325Z,52.04
2022-12-24T22:56:05.650Z,52.09
2022-12-24T22:58:32.407Z,51.64
2022-12-24T23:00:59.078Z,52.10
2022-12-24T23:03:28.561Z,52.24
2022-12-24T23:05:56.626Z,51.32
2022-12-24T23:08:23.325Z,51.74
2022-12-24T23:10:49.949Z,51.88
2022-12-24T23:13:35.232Z,52.17
2022-12-24T23:16:06.816Z,51.82
2022-12-24T23:18:33.661Z,51.82
2022-12-24T23:21:04.136Z,51.53
2022-12-24T23:23:36.439Z,51.73
2022-12-24T23:26:10.986Z,51.74
2022-12-24T23:28:38.146Z,51.75
2022-12-24T23:31:05.059Z,52.18
2022-12-24T23:33:31.736Z,51.31
2022-12-24T23:35:58.361Z,52.47
2022-12-24T23:38:25.132Z,52.86
2022-12-24T23:40:55.033Z,52.83
2022-12-24T23:43:21.620Z,53.11
2022-12-24T23:45:48.679Z,53.19
2022-12-24T23:48:15.651Z,53.12
2022-12-24T23:50:43.240Z,53.75
2022-12-24T23:53:10.169Z,53.91
2022-12-24T23:55:37.114Z,53.66
2022-12-24T23:58:04.252Z,53.42
